sensor_id;sensor_type;location;lat;lon;timestamp;temperature;humidity
6988;DHT22;3534;49.960;8.018;2023-02-03T00:01:50;9.10;99.90
6988;DHT22;3534;49.960;8.018;2023-02-03T00:04:17;9.10;99.90
6988;DHT22;3534;49.960;8.018;2023-02-03T00:06:44;9.10;99.90
6988;DHT22;3534;49.960;8.018;2023-02-03T00:09:11;9.10;99.90
6988;DHT22;3534;49.960;8.018;2023-02-03T00:11:38;9.20;99.90
6988;DHT22;3534;49.960;8.018;2023-02-03T00:14:06;9.10;99.90
6988;DHT22;3534;49.960;8.018;2023-02-03T00:16:33;9.00;99.90
6988;DHT22;3534;49.960;8.018;2023-02-03T00:19:00;9.00;99.90
6988;DHT22;3534;49.960;8.018;2023-02-03T00:21:27;9.00;99.90
6988;DHT22;3534;49.960;8.018;2023-02-03T00:23:53;9.00;99.90
6988;DHT22;3534;49.960;8.018;2023-02-03T00:26:20;9.00;99.90
6988;DHT22;3534;49.960;8.018;2023-02-03T00:28:48;8.90;99.90
6988;DHT22;3534;49.960;8.018;2023-02-03T00:31:17;8.90;99.90
6988;DHT22;3534;49.960;8.018;2023-02-03T00:33:44;8.90;99.90
6988;DHT22;3534;49.960;8.018;2023-02-03T00:36:11;8.90;99.90
6988;DHT22;3534;49.960;8.018;2023-02-03T00:38:38;8.90;99.90
6988;DHT22;3534;49.960;8.018;2023-02-03T00:41:05;8.90;99.90
6988;DHT22;3534;49.960;8.018;2023-02-03T00:43:32;8.90;99.90
6988;DHT22;3534;49.960;8.018;2023-02-03T00:45:59;8.90;99.90
6988;DHT22;3534;49.960;8.018;2023-02-03T00:48:28;9.00;99.90
6988;DHT22;3534;49.960;8.018;2023-02-03T00:50:55;8.90;99.90
6988;DHT22;3534;49.960;8.018;2023-02-03T00:53:21;8.90;99.90
6988;DHT22;3534;49.960;8.018;2023-02-03T00:55:48;8.90;99.90
6988;DHT22;3534;49.960;8.018;2023-02-03T00:58:15;8.90;99.90
6988;DHT22;3534;49.960;8.018;2023-02-03T01:00:41;8.90;99.90
6988;DHT22;3534;49.960;8.018;2023-02-03T01:03:08;8.90;99.90
6988;DHT22;3534;49.960;8.018;2023-02-03T01:05:36;8.90;99.90
6988;DHT22;3534;49.960;8.018;2023-02-03T01:08:03;8.90;99.90
6988;DHT22;3534;49.960;8.018;2023-02-03T01:10:30;8.90;99.90
6988;DHT22;3534;49.960;8.018;2023-02-03T01:12:57;8.90;99.90
6988;DHT22;3534;49.960;8.018;2023-02-03T01:15:24;8.90;99.90
6988;DHT22;3534;49.960;8.018;2023-02-03T01:17:51;8.90;99.90
6988;DHT22;3534;49.960;8.018;2023-02-03T01:20:18;8.90;99.90
6988;DHT22;3534;49.960;8.018;2023-02-03T01:22:47;8.90;99.90
6988;DHT22;3534;49.960;8.018;2023-02-03T01:25:14;8.90;99.90
6988;DHT22;3534;49.960;8.018;2023-02-03T01:27:41;8.90;99.90
6988;DHT22;3534;49.960;8.018;2023-02-03T01:30:08;8.90;99.90
6988;DHT22;3534;49.960;8.018;2023-02-03T01:32:35;8.90;99.90
6988;DHT22;3534;49.960;8.018;2023-02-03T01:35:02;8.80;99.90
6988;DHT22;3534;49.960;8.018;2023-02-03T01:37:29;8.80;99.90
6988;DHT22;3534;49.960;8.018;2023-02-03T01:39:57;8.80;99.90
6988;DHT22;3534;49.960;8.018;2023-02-03T01:42:23;8.80;99.90
6988;DHT22;3534;49.960;8.018;2023-02-03T01:44:50;8.80;99.90
6988;DHT22;3534;49.960;8.018;2023-02-03T01:47:25;8.80;99.90
6988;DHT22;3534;49.960;8.018;2023-02-03T01:49:58;8.80;99.90
6988;DHT22;3534;49.960;8.018;2023-02-03T01:52:27;8.80;99.90
6988;DHT22;3534;49.960;8.018;2023-02-03T01:54:57;8.80;99.90
6988;DHT22;3534;49.960;8.018;2023-02-03T01:57:28;8.80;99.90
6988;DHT22;3534;49.960;8.018;2023-02-03T01:59:56;8.80;99.90
6988;DHT22;3534;49.960;8.018;2023-02-03T02:02:24;8.80;99.90
6988;DHT22;3534;49.960;8.018;2023-02-03T02:04:55;8.80;99.90
6988;DHT22;3534;49.960;8.018;2023-02-03T02:07:23;8.80;99.90
6988;DHT22;3534;49.960;8.018;2023-02-03T02:09:50;8.80;99.90
6988;DHT22;3534;49.960;8.018;2023-02-03T02:12:19;8.80;99.90
6988;DHT22;3534;49.960;8.018;2023-02-03T02:14:46;8.80;99.90
6988;DHT22;3534;49.960;8.018;2023-02-03T02:17:28;8.80;99.90
6988;DHT22;3534;49.960;8.018;2023-02-03T02:20:14;8.80;99.90
6988;DHT22;3534;49.960;8.018;2023-02-03T02:22:59;8.80;99.90
6988;DHT22;3534;49.960;8.018;2023-02-03T02:25:53;8.80;99.90
6988;DHT22;3534;49.960;8.018;2023-02-03T02:28:52;8.80;99.90
6988;DHT22;3534;49.960;8.018;2023-02-03T02:31:48;8.80;99.90
6988;DHT22;3534;49.960;8.018;2023-02-03T02:34:23;8.80;99.90
6988;DHT22;3534;49.960;8.018;2023-02-03T02:37:00;8.80;99.90
6988;DHT22;3534;49.960;8.018;2023-02-03T02:39:37;8.80;99.90
6988;DHT22;3534;49.960;8.018;2023-02-03T02:42:09;8.80;99.90
6988;DHT22;3534;49.960;8.018;2023-02-03T02:44:43;8.90;99.90
6988;DHT22;3534;49.960;8.018;2023-02-03T02:47:16;8.80;99.90
6988;DHT22;3534;49.960;8.018;2023-02-03T02:49:46;8.80;99.90
6988;DHT22;3534;49.960;8.018;2023-02-03T02:52:16;8.80;99.90
6988;DHT22;3534;49.960;8.018;2023-02-03T02:54:47;8.80;99.90
6988;DHT22;3534;49.960;8.018;2023-02-03T02:57:17;8.80;99.90
6988;DHT22;3534;49.960;8.018;2023-02-03T02:59:45;8.80;99.90
6988;DHT22;3534;49.960;8.018;2023-02-03T03:02:14;9.00;99.90
6988;DHT22;3534;49.960;8.018;2023-02-03T03:04:42;8.90;99.90
6988;DHT22;3534;49.960;8.018;2023-02-03T03:07:13;8.90;99.90
6988;DHT22;3534;49.960;8.018;2023-02-03T03:09:44;8.90;99.90
6988;DHT22;3534;49.960;8.018;2023-02-03T03:12:15;8.90;99.90
6988;DHT22;3534;49.960;8.018;2023-02-03T03:14:45;8.90;99.90
6988;DHT22;3534;49.960;8.018;2023-02-03T03:17:20;8.90;99.90
6988;DHT22;3534;49.960;8.018;2023-02-03T03:19:51;8.90;99.90
6988;DHT22;3534;49.960;8.018;2023-02-03T03:22:21;8.90;99.90
6988;DHT22;3534;49.960;8.018;2023-02-03T03:24:54;8.90;99.90
6988;DHT22;3534;49.960;8.018;2023-02-03T03:27:22;8.90;99.90
6988;DHT22;3534;49.960;8.018;2023-02-03T03:29:53;8.90;99.90
6988;DHT22;3534;49.960;8.018;2023-02-03T03:32:23;8.90;99.90
6988;DHT22;3534;49.960;8.018;2023-02-03T03:34:53;8.90;99.90
6988;DHT22;3534;49.960;8.018;2023-02-03T03:37:23;9.00;99.90
6988;DHT22;3534;49.960;8.018;2023-02-03T03:39:55;9.00;99.90
6988;DHT22;3534;49.960;8.018;2023-02-03T03:42:26;9.00;99.90
6988;DHT22;3534;49.960;8.018;2023-02-03T03:44:57;9.10;99.90
6988;DHT22;3534;49.960;8.018;2023-02-03T03:47:30;9.00;99.90
6988;DHT22;3534;49.960;8.018;2023-02-03T03:50:00;9.00;99.90
6988;DHT22;3534;49.960;8.018;2023-02-03T03:52:30;9.10;99.90
6988;DHT22;3534;49.960;8.018;2023-02-03T03:55:00;9.00;99.90
6988;DHT22;3534;49.960;8.018;2023-02-03T03:57:30;9.10;99.90
6988;DHT22;3534;49.960;8.018;2023-02-03T03:59:59;9.10;99.90
6988;DHT22;3534;49.960;8.018;2023-02-03T04:02:29;9.10;99.90
6988;DHT22;3534;49.960;8.018;2023-02-03T04:04:59;9.10;99.90
6988;DHT22;3534;49.960;8.018;2023-02-03T04:07:37;9.10;99.90
6988;DHT22;3534;49.960;8.018;2023-02-03T04:10:06;9.10;99.90
6988;DHT22;3534;49.960;8.018;2023-02-03T04:12:38;9.10;99.90
6988;DHT22;3534;49.960;8.018;2023-02-03T04:15:05;9.10;99.90
6988;DHT22;3534;49.960;8.018;2023-02-03T04:17:33;9.10;99.90
6988;DHT22;3534;49.960;8.018;2023-02-03T04:20:01;9.20;99.90
6988;DHT22;3534;49.960;8.018;2023-02-03T04:22:28;9.20;99.90
6988;DHT22;3534;49.960;8.018;2023-02-03T04:24:54;9.20;99.90
6988;DHT22;3534;49.960;8.018;2023-02-03T04:27:23;9.10;99.90
6988;DHT22;3534;49.960;8.018;2023-02-03T04:29:50;9.10;99.90
6988;DHT22;3534;49.960;8.018;2023-02-03T04:32:16;9.10;99.90
6988;DHT22;3534;49.960;8.018;2023-02-03T04:34:45;9.10;99.90
6988;DHT22;3534;49.960;8.018;2023-02-03T04:37:12;9.10;99.90
6988;DHT22;3534;49.960;8.018;2023-02-03T04:39:38;9.10;99.90
6988;DHT22;3534;49.960;8.018;2023-02-03T04:42:05;9.10;99.90
6988;DHT22;3534;49.960;8.018;2023-02-03T04:44:32;9.00;99.90
6988;DHT22;3534;49.960;8.018;2023-02-03T04:46:58;9.00;99.90
6988;DHT22;3534;49.960;8.018;2023-02-03T04:49:25;9.10;99.90
6988;DHT22;3534;49.960;8.018;2023-02-03T04:51:53;9.00;99.90
6988;DHT22;3534;49.960;8.018;2023-02-03T04:54:20;9.00;99.90
6988;DHT22;3534;49.960;8.018;2023-02-03T04:56:47;9.00;99.90
6988;DHT22;3534;49.960;8.018;2023-02-03T04:59:13;9.00;99.90
6988;DHT22;3534;49.960;8.018;2023-02-03T05:01:40;9.00;99.90
6988;DHT22;3534;49.960;8.018;2023-02-03T05:04:07;9.00;99.90
6988;DHT22;3534;49.960;8.018;2023-02-03T05:06:34;8.90;99.90
6988;DHT22;3534;49.960;8.018;2023-02-03T05:09:02;8.90;99.90
6988;DHT22;3534;49.960;8.018;2023-02-03T05:11:29;8.90;99.90
6988;DHT22;3534;49.960;8.018;2023-02-03T05:13:56;8.90;99.90
6988;DHT22;3534;49.960;8.018;2023-02-03T05:16:23;8.90;99.90
6988;DHT22;3534;49.960;8.018;2023-02-03T05:18:50;8.90;99.90
6988;DHT22;3534;49.960;8.018;2023-02-03T05:21:17;8.90;99.90
6988;DHT22;3534;49.960;8.018;2023-02-03T05:23:43;8.90;99.90
6988;DHT22;3534;49.960;8.018;2023-02-03T05:26:12;8.90;99.90
6988;DHT22;3534;49.960;8.018;2023-02-03T05:28:40;8.90;99.90
6988;DHT22;3534;49.960;8.018;2023-02-03T05:31:07;8.90;99.90
6988;DHT22;3534;49.960;8.018;2023-02-03T05:33:34;8.90;99.90
6988;DHT22;3534;49.960;8.018;2023-02-03T05:36:00;8.90;99.90
6988;DHT22;3534;49.960;8.018;2023-02-03T05:38:27;8.90;99.90
6988;DHT22;3534;49.960;8.018;2023-02-03T05:40:54;8.90;99.90
6988;DHT22;3534;49.960;8.018;2023-02-03T05:43:39;9.00;99.90
6988;DHT22;3534;49.960;8.018;2023-02-03T05:46:06;9.00;99.90
6988;DHT22;3534;49.960;8.018;2023-02-03T05:48:33;9.00;99.90
6988;DHT22;3534;49.960;8.018;2023-02-03T05:51:00;9.00;99.90
6988;DHT22;3534;49.960;8.018;2023-02-03T05:53:27;9.00;99.90
6988;DHT22;3534;49.960;8.018;2023-02-03T05:55:54;9.10;99.90
6988;DHT22;3534;49.960;8.018;2023-02-03T05:58:20;9.00;99.90
6988;DHT22;3534;49.960;8.018;2023-02-03T06:00:48;9.00;99.90
6988;DHT22;3534;49.960;8.018;2023-02-03T06:03:15;9.00;99.90
6988;DHT22;3534;49.960;8.018;2023-02-03T06:05:42;9.00;99.90
6988;DHT22;3534;49.960;8.018;2023-02-03T06:08:09;9.00;99.90
6988;DHT22;3534;49.960;8.018;2023-02-03T06:10:36;9.00;99.90
6988;DHT22;3534;49.960;8.018;2023-02-03T06:13:10;9.00;99.90
6988;DHT22;3534;49.960;8.018;2023-02-03T06:15:37;9.00;99.90
6988;DHT22;3534;49.960;8.018;2023-02-03T06:18:06;9.00;99.90
6988;DHT22;3534;49.960;8.018;2023-02-03T06:20:34;9.00;99.90
6988;DHT22;3534;49.960;8.018;2023-02-03T06:23:00;9.00;99.90
6988;DHT22;3534;49.960;8.018;2023-02-03T06:25:28;9.00;99.90
6988;DHT22;3534;49.960;8.018;2023-02-03T06:27:56;9.00;99.90
6988;DHT22;3534;49.960;8.018;2023-02-03T06:30:23;9.00;99.90
6988;DHT22;3534;49.960;8.018;2023-02-03T06:32:50;9.00;99.90
6988;DHT22;3534;49.960;8.018;2023-02-03T06:35:18;9.00;99.90
6988;DHT22;3534;49.960;8.018;2023-02-03T06:37:44;9.00;99.90
6988;DHT22;3534;49.960;8.018;2023-02-03T06:40:12;9.00;99.90
6988;DHT22;3534;49.960;8.018;2023-02-03T06:42:38;9.00;99.90
6988;DHT22;3534;49.960;8.018;2023-02-03T06:45:06;9.00;99.90
6988;DHT22;3534;49.960;8.018;2023-02-03T06:47:33;9.00;99.90
6988;DHT22;3534;49.960;8.018;2023-02-03T06:50:00;9.10;99.90
6988;DHT22;3534;49.960;8.018;2023-02-03T06:52:28;9.10;99.90
6988;DHT22;3534;49.960;8.018;2023-02-03T06:54:55;9.10;99.90
6988;DHT22;3534;49.960;8.018;2023-02-03T06:57:21;9.10;99.90
6988;DHT22;3534;49.960;8.018;2023-02-03T06:59:48;9.10;99.90
6988;DHT22;3534;49.960;8.018;2023-02-03T07:02:15;9.10;99.90
6988;DHT22;3534;49.960;8.018;2023-02-03T07:04:41;9.20;99.90
6988;DHT22;3534;49.960;8.018;2023-02-03T07:07:09;9.20;99.90
6988;DHT22;3534;49.960;8.018;2023-02-03T07:09:37;9.20;99.90
6988;DHT22;3534;49.960;8.018;2023-02-03T07:12:04;9.20;99.90
6988;DHT22;3534;49.960;8.018;2023-02-03T07:14:31;9.20;99.90
6988;DHT22;3534;49.960;8.018;2023-02-03T07:16:59;9.20;99.90
6988;DHT22;3534;49.960;8.018;2023-02-03T07:19:26;9.20;99.90
6988;DHT22;3534;49.960;8.018;2023-02-03T07:21:53;9.30;99.90
6988;DHT22;3534;49.960;8.018;2023-02-03T07:24:20;9.30;99.90
6988;DHT22;3534;49.960;8.018;2023-02-03T07:26:47;9.30;99.90
6988;DHT22;3534;49.960;8.018;2023-02-03T07:29:14;9.30;99.90
6988;DHT22;3534;49.960;8.018;2023-02-03T07:31:41;9.20;99.90
6988;DHT22;3534;49.960;8.018;2023-02-03T07:34:08;9.30;99.90
6988;DHT22;3534;49.960;8.018;2023-02-03T07:36:35;9.30;99.90
6988;DHT22;3534;49.960;8.018;2023-02-03T07:39:01;9.30;99.90
6988;DHT22;3534;49.960;8.018;2023-02-03T07:41:28;9.30;99.90
6988;DHT22;3534;49.960;8.018;2023-02-03T07:43:56;9.30;99.90
6988;DHT22;3534;49.960;8.018;2023-02-03T07:46:23;9.30;99.90
6988;DHT22;3534;49.960;8.018;2023-02-03T07:48:49;9.40;99.90
6988;DHT22;3534;49.960;8.018;2023-02-03T07:51:16;9.40;99.90
6988;DHT22;3534;49.960;8.018;2023-02-03T07:53:43;9.40;99.90
6988;DHT22;3534;49.960;8.018;2023-02-03T07:56:10;9.40;99.90
6988;DHT22;3534;49.960;8.018;2023-02-03T07:58:37;9.40;99.90
6988;DHT22;3534;49.960;8.018;2023-02-03T08:01:11;9.40;99.90
6988;DHT22;3534;49.960;8.018;2023-02-03T08:03:38;9.50;99.90
6988;DHT22;3534;49.960;8.018;2023-02-03T08:06:05;9.50;99.90
6988;DHT22;3534;49.960;8.018;2023-02-03T08:08:32;9.50;99.90
6988;DHT22;3534;49.960;8.018;2023-02-03T08:10:59;9.50;99.90
6988;DHT22;3534;49.960;8.018;2023-02-03T08:13:25;9.50;99.90
6988;DHT22;3534;49.960;8.018;2023-02-03T08:15:52;9.50;99.90
6988;DHT22;3534;49.960;8.018;2023-02-03T08:18:20;9.60;99.90
6988;DHT22;3534;49.960;8.018;2023-02-03T08:20:47;9.60;99.90
6988;DHT22;3534;49.960;8.018;2023-02-03T08:23:14;9.60;99.90
6988;DHT22;3534;49.960;8.018;2023-02-03T08:25:40;9.60;99.90
6988;DHT22;3534;49.960;8.018;2023-02-03T08:28:07;9.60;99.90
6988;DHT22;3534;49.960;8.018;2023-02-03T08:30:34;9.70;99.90
6988;DHT22;3534;49.960;8.018;2023-02-03T08:33:00;9.70;99.90
6988;DHT22;3534;49.960;8.018;2023-02-03T08:35:28;9.70;99.90
6988;DHT22;3534;49.960;8.018;2023-02-03T08:37:55;9.70;99.90
6988;DHT22;3534;49.960;8.018;2023-02-03T08:40:22;9.70;99.90
6988;DHT22;3534;49.960;8.018;2023-02-03T08:42:48;9.70;99.90
6988;DHT22;3534;49.960;8.018;2023-02-03T08:45:15;9.80;99.90
6988;DHT22;3534;49.960;8.018;2023-02-03T08:47:42;9.80;99.90
6988;DHT22;3534;49.960;8.018;2023-02-03T08:50:09;9.80;99.90
6988;DHT22;3534;49.960;8.018;2023-02-03T08:52:39;9.80;99.90
6988;DHT22;3534;49.960;8.018;2023-02-03T08:55:06;9.90;99.90
6988;DHT22;3534;49.960;8.018;2023-02-03T08:57:33;9.90;99.90
6988;DHT22;3534;49.960;8.018;2023-02-03T08:59:59;9.90;99.90
6988;DHT22;3534;49.960;8.018;2023-02-03T09:02:26;9.90;99.90
6988;DHT22;3534;49.960;8.018;2023-02-03T09:04:53;9.90;99.90
6988;DHT22;3534;49.960;8.018;2023-02-03T09:07:19;9.90;99.90
6988;DHT22;3534;49.960;8.018;2023-02-03T09:09:47;9.90;99.90
6988;DHT22;3534;49.960;8.018;2023-02-03T09:12:14;10.00;99.90
6988;DHT22;3534;49.960;8.018;2023-02-03T09:14:41;10.00;99.90
6988;DHT22;3534;49.960;8.018;2023-02-03T09:17:08;10.00;99.90
6988;DHT22;3534;49.960;8.018;2023-02-03T09:19:35;10.00;99.90
6988;DHT22;3534;49.960;8.018;2023-02-03T09:22:02;10.00;99.90
6988;DHT22;3534;49.960;8.018;2023-02-03T09:24:29;10.00;99.90
6988;DHT22;3534;49.960;8.018;2023-02-03T09:26:57;10.00;99.90
6988;DHT22;3534;49.960;8.018;2023-02-03T09:29:25;10.00;99.90
6988;DHT22;3534;49.960;8.018;2023-02-03T09:31:52;10.00;99.90
6988;DHT22;3534;49.960;8.018;2023-02-03T09:34:19;10.00;99.90
6988;DHT22;3534;49.960;8.018;2023-02-03T09:36:45;10.00;99.90
6988;DHT22;3534;49.960;8.018;2023-02-03T09:39:12;10.00;99.90
6988;DHT22;3534;49.960;8.018;2023-02-03T09:41:55;10.00;99.90
6988;DHT22;3534;49.960;8.018;2023-02-03T09:44:30;10.00;99.90
6988;DHT22;3534;49.960;8.018;2023-02-03T09:47:02;10.10;99.90
6988;DHT22;3534;49.960;8.018;2023-02-03T09:49:37;10.10;99.90
6988;DHT22;3534;49.960;8.018;2023-02-03T09:52:09;10.10;99.90
6988;DHT22;3534;49.960;8.018;2023-02-03T09:54:41;10.10;99.90
6988;DHT22;3534;49.960;8.018;2023-02-03T09:57:13;10.10;99.90
6988;DHT22;3534;49.960;8.018;2023-02-03T09:59:43;10.20;99.90
6988;DHT22;3534;49.960;8.018;2023-02-03T10:05:05;10.20;99.90
6988;DHT22;3534;49.960;8.018;2023-02-03T10:07:40;10.20;99.90
6988;DHT22;3534;49.960;8.018;2023-02-03T10:10:14;10.20;99.90
6988;DHT22;3534;49.960;8.018;2023-02-03T10:12:55;10.20;99.90
6988;DHT22;3534;49.960;8.018;2023-02-03T10:15:56;10.20;99.90
6988;DHT22;3534;49.960;8.018;2023-02-03T10:18:30;10.20;99.90
6988;DHT22;3534;49.960;8.018;2023-02-03T10:21:00;10.20;99.90
6988;DHT22;3534;49.960;8.018;2023-02-03T10:23:30;10.20;99.90
6988;DHT22;3534;49.960;8.018;2023-02-03T10:26:00;10.20;99.90
6988;DHT22;3534;49.960;8.018;2023-02-03T10:28:30;10.20;99.90
6988;DHT22;3534;49.960;8.018;2023-02-03T10:30:59;10.20;99.90
6988;DHT22;3534;49.960;8.018;2023-02-03T10:33:28;10.20;99.90
6988;DHT22;3534;49.960;8.018;2023-02-03T10:36:02;10.30;99.90
6988;DHT22;3534;49.960;8.018;2023-02-03T10:38:40;10.30;99.90
6988;DHT22;3534;49.960;8.018;2023-02-03T10:41:11;10.30;99.90
6988;DHT22;3534;49.960;8.018;2023-02-03T10:43:38;10.30;99.90
6988;DHT22;3534;49.960;8.018;2023-02-03T10:46:19;10.30;99.90
6988;DHT22;3534;49.960;8.018;2023-02-03T10:48:46;10.30;99.90
6988;DHT22;3534;49.960;8.018;2023-02-03T10:51:18;10.40;99.90
6988;DHT22;3534;49.960;8.018;2023-02-03T10:53:45;10.40;99.90
6988;DHT22;3534;49.960;8.018;2023-02-03T10:56:13;10.40;99.90
6988;DHT22;3534;49.960;8.018;2023-02-03T10:58:46;10.40;99.90
6988;DHT22;3534;49.960;8.018;2023-02-03T11:01:17;10.40;99.90
6988;DHT22;3534;49.960;8.018;2023-02-03T11:03:54;10.40;99.90
6988;DHT22;3534;49.960;8.018;2023-02-03T11:06:21;10.40;99.90
6988;DHT22;3534;49.960;8.018;2023-02-03T11:08:49;10.50;99.90
6988;DHT22;3534;49.960;8.018;2023-02-03T11:11:20;10.50;99.90
6988;DHT22;3534;49.960;8.018;2023-02-03T11:13:52;10.50;99.90
6988;DHT22;3534;49.960;8.018;2023-02-03T11:16:20;10.50;99.90
6988;DHT22;3534;49.960;8.018;2023-02-03T11:18:54;10.50;99.90
6988;DHT22;3534;49.960;8.018;2023-02-03T11:21:23;10.50;99.90
6988;DHT22;3534;49.960;8.018;2023-02-03T11:23:54;10.50;99.90
6988;DHT22;3534;49.960;8.018;2023-02-03T11:26:24;10.50;99.90
6988;DHT22;3534;49.960;8.018;2023-02-03T11:28:55;10.50;99.90
6988;DHT22;3534;49.960;8.018;2023-02-03T11:31:25;10.50;99.90
6988;DHT22;3534;49.960;8.018;2023-02-03T11:33:58;10.60;99.90
6988;DHT22;3534;49.960;8.018;2023-02-03T11:36:28;10.50;99.90
6988;DHT22;3534;49.960;8.018;2023-02-03T11:39:09;10.50;99.90
6988;DHT22;3534;49.960;8.018;2023-02-03T11:41:38;10.50;99.90
6988;DHT22;3534;49.960;8.018;2023-02-03T11:44:15;10.40;99.90
6988;DHT22;3534;49.960;8.018;2023-02-03T11:46:43;10.40;99.90
6988;DHT22;3534;49.960;8.018;2023-02-03T11:49:41;10.40;99.90
6988;DHT22;3534;49.960;8.018;2023-02-03T11:52:27;10.40;99.90
6988;DHT22;3534;49.960;8.018;2023-02-03T11:55:03;10.40;99.90
6988;DHT22;3534;49.960;8.018;2023-02-03T11:57:37;10.40;99.90
6988;DHT22;3534;49.960;8.018;2023-02-03T12:00:17;10.40;99.90
6988;DHT22;3534;49.960;8.018;2023-02-03T12:03:23;10.40;99.90
6988;DHT22;3534;49.960;8.018;2023-02-03T12:05:59;10.40;99.90
6988;DHT22;3534;49.960;8.018;2023-02-03T12:08:41;10.40;99.90
6988;DHT22;3534;49.960;8.018;2023-02-03T12:11:21;10.40;99.90
6988;DHT22;3534;49.960;8.018;2023-02-03T12:14:16;10.40;99.90
6988;DHT22;3534;49.960;8.018;2023-02-03T12:17:00;10.40;99.90
6988;DHT22;3534;49.960;8.018;2023-02-03T12:19:42;10.40;99.90
6988;DHT22;3534;49.960;8.018;2023-02-03T12:22:14;10.40;99.90
6988;DHT22;3534;49.960;8.018;2023-02-03T12:24:53;10.30;99.90
6988;DHT22;3534;49.960;8.018;2023-02-03T12:27:27;10.30;99.90
6988;DHT22;3534;49.960;8.018;2023-02-03T12:30:02;10.40;99.90
6988;DHT22;3534;49.960;8.018;2023-02-03T12:32:33;10.40;99.90
6988;DHT22;3534;49.960;8.018;2023-02-03T12:35:12;10.40;99.90
6988;DHT22;3534;49.960;8.018;2023-02-03T12:37:47;10.40;99.90
6988;DHT22;3534;49.960;8.018;2023-02-03T12:40:19;10.40;99.90
6988;DHT22;3534;49.960;8.018;2023-02-03T12:42:52;10.40;99.90
6988;DHT22;3534;49.960;8.018;2023-02-03T12:45:23;10.40;99.90
6988;DHT22;3534;49.960;8.018;2023-02-03T12:47:54;10.40;99.90
6988;DHT22;3534;49.960;8.018;2023-02-03T12:50:28;10.50;99.90
6988;DHT22;3534;49.960;8.018;2023-02-03T12:52:59;10.40;99.90
6988;DHT22;3534;49.960;8.018;2023-02-03T12:55:33;10.40;99.90
6988;DHT22;3534;49.960;8.018;2023-02-03T12:58:04;10.50;99.90
6988;DHT22;3534;49.960;8.018;2023-02-03T13:00:38;10.40;99.90
6988;DHT22;3534;49.960;8.018;2023-02-03T13:03:12;10.40;99.90
6988;DHT22;3534;49.960;8.018;2023-02-03T13:05:45;10.40;99.90
6988;DHT22;3534;49.960;8.018;2023-02-03T13:08:21;10.50;99.90
6988;DHT22;3534;49.960;8.018;2023-02-03T13:10:50;10.50;99.90
6988;DHT22;3534;49.960;8.018;2023-02-03T13:13:25;10.50;99.90
6988;DHT22;3534;49.960;8.018;2023-02-03T13:15:55;10.50;99.90
6988;DHT22;3534;49.960;8.018;2023-02-03T13:18:25;10.50;99.90
6988;DHT22;3534;49.960;8.018;2023-02-03T13:20:55;10.50;99.90
6988;DHT22;3534;49.960;8.018;2023-02-03T13:23:22;10.50;99.90
6988;DHT22;3534;49.960;8.018;2023-02-03T13:26:03;10.50;99.90
6988;DHT22;3534;49.960;8.018;2023-02-03T13:28:45;10.50;99.90
6988;DHT22;3534;49.960;8.018;2023-02-03T13:31:25;10.50;99.90
6988;DHT22;3534;49.960;8.018;2023-02-03T13:34:21;10.50;99.90
6988;DHT22;3534;49.960;8.018;2023-02-03T13:40:01;10.60;99.90
6988;DHT22;3534;49.960;8.018;2023-02-03T13:42:31;10.60;99.90
6988;DHT22;3534;49.960;8.018;2023-02-03T13:45:10;10.60;99.90
6988;DHT22;3534;49.960;8.018;2023-02-03T13:47:39;10.60;99.90
6988;DHT22;3534;49.960;8.018;2023-02-03T13:50:18;10.60;99.90
6988;DHT22;3534;49.960;8.018;2023-02-03T13:52:53;10.60;99.90
6988;DHT22;3534;49.960;8.018;2023-02-03T13:55:29;10.60;99.90
6988;DHT22;3534;49.960;8.018;2023-02-03T13:57:56;10.70;99.90
6988;DHT22;3534;49.960;8.018;2023-02-03T14:03:44;10.60;99.90
6988;DHT22;3534;49.960;8.018;2023-02-03T14:09:38;10.60;99.90
6988;DHT22;3534;49.960;8.018;2023-02-03T14:12:30;10.60;99.90
6988;DHT22;3534;49.960;8.018;2023-02-03T14:15:00;10.60;99.90
6988;DHT22;3534;49.960;8.018;2023-02-03T14:17:57;10.60;99.90
6988;DHT22;3534;49.960;8.018;2023-02-03T14:20:41;10.60;99.90
6988;DHT22;3534;49.960;8.018;2023-02-03T14:23:12;10.60;99.90
6988;DHT22;3534;49.960;8.018;2023-02-03T14:25:44;10.70;99.90
6988;DHT22;3534;49.960;8.018;2023-02-03T14:28:14;10.60;99.90
6988;DHT22;3534;49.960;8.018;2023-02-03T14:31:02;10.60;99.90
6988;DHT22;3534;49.960;8.018;2023-02-03T14:33:50;10.60;99.90
6988;DHT22;3534;49.960;8.018;2023-02-03T14:36:30;10.60;99.90
6988;DHT22;3534;49.960;8.018;2023-02-03T14:39:01;10.60;99.90
6988;DHT22;3534;49.960;8.018;2023-02-03T14:41:41;10.60;99.90
6988;DHT22;3534;49.960;8.018;2023-02-03T14:44:20;10.60;99.90
6988;DHT22;3534;49.960;8.018;2023-02-03T14:47:03;10.60;99.90
6988;DHT22;3534;49.960;8.018;2023-02-03T14:50:01;10.60;99.90
6988;DHT22;3534;49.960;8.018;2023-02-03T14:52:46;10.60;99.90
6988;DHT22;3534;49.960;8.018;2023-02-03T14:55:26;10.50;99.90
6988;DHT22;3534;49.960;8.018;2023-02-03T14:58:00;10.60;99.90
6988;DHT22;3534;49.960;8.018;2023-02-03T15:00:30;10.60;99.90
6988;DHT22;3534;49.960;8.018;2023-02-03T15:03:22;10.50;99.90
6988;DHT22;3534;49.960;8.018;2023-02-03T15:05:52;10.50;99.90
6988;DHT22;3534;49.960;8.018;2023-02-03T15:08:46;10.50;99.90
6988;DHT22;3534;49.960;8.018;2023-02-03T15:11:30;10.50;99.90
6988;DHT22;3534;49.960;8.018;2023-02-03T15:14:17;10.50;99.90
6988;DHT22;3534;49.960;8.018;2023-02-03T15:16:44;10.50;99.90
6988;DHT22;3534;49.960;8.018;2023-02-03T15:19:16;10.50;99.90
6988;DHT22;3534;49.960;8.018;2023-02-03T15:21:43;10.40;99.90
6988;DHT22;3534;49.960;8.018;2023-02-03T15:24:14;10.40;99.90
6988;DHT22;3534;49.960;8.018;2023-02-03T15:26:48;10.50;99.90
6988;DHT22;3534;49.960;8.018;2023-02-03T15:29:22;10.40;99.90
6988;DHT22;3534;49.960;8.018;2023-02-03T15:31:53;10.40;99.90
6988;DHT22;3534;49.960;8.018;2023-02-03T15:34:25;10.40;99.90
6988;DHT22;3534;49.960;8.018;2023-02-03T15:36:54;10.40;99.90
6988;DHT22;3534;49.960;8.018;2023-02-03T15:39:32;10.40;99.90
6988;DHT22;3534;49.960;8.018;2023-02-03T15:42:02;10.40;99.90
6988;DHT22;3534;49.960;8.018;2023-02-03T15:44:34;10.40;99.90
6988;DHT22;3534;49.960;8.018;2023-02-03T15:47:14;10.40;99.90
6988;DHT22;3534;49.960;8.018;2023-02-03T15:49:43;10.40;99.90
6988;DHT22;3534;49.960;8.018;2023-02-03T15:52:13;10.40;99.90
6988;DHT22;3534;49.960;8.018;2023-02-03T15:54:44;10.40;99.90
6988;DHT22;3534;49.960;8.018;2023-02-03T15:57:20;10.40;99.90
6988;DHT22;3534;49.960;8.018;2023-02-03T15:59:53;10.40;99.90
6988;DHT22;3534;49.960;8.018;2023-02-03T16:02:26;10.40;99.90
6988;DHT22;3534;49.960;8.018;2023-02-03T16:04:54;10.40;99.90
6988;DHT22;3534;49.960;8.018;2023-02-03T16:07:23;10.40;99.90
6988;DHT22;3534;49.960;8.018;2023-02-03T16:09:51;10.40;99.90
6988;DHT22;3534;49.960;8.018;2023-02-03T16:12:22;10.40;99.90
6988;DHT22;3534;49.960;8.018;2023-02-03T16:15:22;10.40;99.90
6988;DHT22;3534;49.960;8.018;2023-02-03T16:17:54;10.40;99.90
6988;DHT22;3534;49.960;8.018;2023-02-03T16:20:24;10.40;99.90
6988;DHT22;3534;49.960;8.018;2023-02-03T16:23:04;10.40;99.90
6988;DHT22;3534;49.960;8.018;2023-02-03T16:25:33;10.40;99.90
6988;DHT22;3534;49.960;8.018;2023-02-03T16:28:03;10.40;99.90
6988;DHT22;3534;49.960;8.018;2023-02-03T16:30:53;10.40;99.90
6988;DHT22;3534;49.960;8.018;2023-02-03T16:33:38;10.40;99.90
6988;DHT22;3534;49.960;8.018;2023-02-03T16:36:22;10.50;99.90
6988;DHT22;3534;49.960;8.018;2023-02-03T16:39:10;10.50;99.90
6988;DHT22;3534;49.960;8.018;2023-02-03T16:41:56;10.50;99.90
6988;DHT22;3534;49.960;8.018;2023-02-03T16:44:42;10.50;99.90
6988;DHT22;3534;49.960;8.018;2023-02-03T16:47:29;10.50;99.90
6988;DHT22;3534;49.960;8.018;2023-02-03T16:50:15;10.50;99.90